Time;durP1;ratioP1;P1;durP2;ratioP2;P2;SDS_P1;SDS_P2;PMS_P1;PMS_P2;Temp;Humidity;BMP_temperature;BMP_pressure;BME280_temperature;BME280_humidity;BME280_pressure;Samples;Min_cycle;Max_cycle;Signal;HPM_P1;HPM_P2
2022/04/05 00:00:32;;;;;;;23.20;21.40;;;;;;;1.62;76.96;96600.30;107890;1290;22340;-84
2022/04/05 00:03:03;;;;;;;24.40;22.60;;;;;;;1.61;77.74;96610.18;107889;1291;22446;-85
2022/04/05 00:05:31;;;;;;;27.40;25.40;;;;;;;1.60;77.16;96593.39;107917;1291;22335;-87
2022/04/05 00:07:59;;;;;;;28.10;25.90;;;;;;;1.59;76.67;96590.74;107858;1290;22463;-86
2022/04/05 00:10:27;;;;;;;24.80;23.00;;;;;;;1.58;77.54;96574.20;107887;1291;22432;-87
2022/04/05 00:12:55;;;;;;;24.50;22.60;;;;;;;1.61;77.28;96569.66;107840;1291;22471;-86
2022/04/05 00:15:24;;;;;;;26.10;24.20;;;;;;;1.63;77.95;96572.79;108000;1291;22276;-86
2022/04/05 00:17:51;;;;;;;28.50;26.20;;;;;;;1.62;77.80;96574.22;107923;1291;22263;-84
2022/04/05 00:20:19;;;;;;;27.10;24.80;;;;;;;1.62;76.70;96568.91;107899;1291;22489;-88
2022/04/05 00:22:47;;;;;;;24.80;22.80;;;;;;;1.63;78.09;96555.48;107849;1290;23076;-85
2022/04/05 00:25:15;;;;;;;23.10;21.30;;;;;;;1.66;77.67;96567.34;107898;1291;23109;-82
2022/04/05 00:27:43;;;;;;;27.10;24.80;;;;;;;1.68;78.13;96559.73;107882;1291;22257;-84
2022/04/05 00:30:12;;;;;;;29.80;27.60;;;;;;;1.68;77.37;96555.13;107764;1291;182423;-84
2022/04/05 00:32:39;;;;;;;25.50;23.60;;;;;;;1.68;76.96;96550.83;107865;1291;23012;-82
2022/04/05 00:35:08;;;;;;;22.40;20.70;;;;;;;1.69;77.55;96548.52;107822;1291;22565;-84
2022/04/05 00:37:36;;;;;;;23.30;21.60;;;;;;;1.70;78.25;96556.70;107821;1291;22316;-82
2022/04/05 00:40:06;;;;;;;27.40;25.30;;;;;;;1.69;77.64;96542.53;107824;1291;22375;-81
2022/04/05 00:42:36;;;;;;;24.80;23.00;;;;;;;1.68;77.78;96550.24;107551;1294;22263;-81
2022/04/05 00:45:09;;;;;;;23.00;21.30;;;;;;;1.68;77.23;96542.39;107831;1291;22396;-83
2022/04/05 00:47:37;;;;;;;25.60;23.70;;;;;;;1.69;78.01;96535.69;107856;1291;22481;-87
2022/04/05 00:50:06;;;;;;;29.70;27.50;;;;;;;1.68;78.52;96537.07;107870;1291;22302;-84
2022/04/05 00:52:34;;;;;;;26.90;24.80;;;;;;;1.66;77.97;96527.05;107856;1291;23080;-82
2022/04/05 00:55:02;;;;;;;24.20;22.40;;;;;;;1.64;78.84;96534.82;107818;1291;22984;-83
2022/04/05 00:57:31;;;;;;;24.60;22.80;;;;;;;1.61;78.37;96519.38;107868;1291;22298;-86
2022/04/05 01:00:04;;;;;;;26.70;24.70;;;;;;;1.57;78.86;96524.55;107854;1292;22253;-82
2022/04/05 01:02:36;;;;;;;24.30;22.30;;;;;;;1.51;79.22;96527.70;107853;1291;22313;-84
2022/04/05 01:05:06;;;;;;;24.80;22.90;;;;;;;1.47;79.45;96525.66;107844;1293;22251;-83
2022/04/05 01:07:39;;;;;;;24.20;22.40;;;;;;;1.43;79.78;96525.31;107851;1291;22943;-82
2022/04/05 01:10:08;;;;;;;30.20;28.00;;;;;;;1.39;80.26;96525.71;107572;1293;23078;-82
2022/04/05 01:12:35;;;;;;;27.30;25.20;;;;;;;1.32;80.08;96525.58;107857;1291;22351;-84
2022/04/05 01:15:04;;;;;;;25.60;23.70;;;;;;;1.29;78.89;96519.48;107839;1291;22269;-84
2022/04/05 01:17:34;;;;;;;24.40;22.50;;;;;;;1.29;78.47;96512.80;107827;1291;22540;-86
2022/04/05 01:20:03;;;;;;;25.40;23.50;;;;;;;1.30;77.85;96510.03;107839;1291;22900;-87
2022/04/05 01:22:31;;;;;;;25.90;23.90;;;;;;;1.27;79.78;96516.67;107831;1291;22406;-89
2022/04/05 01:24:58;;;;;;;23.50;21.70;;;;;;;1.22;80.57;96522.65;107667;1293;22282;-86
2022/04/05 01:27:27;;;;;;;24.20;22.40;;;;;;;1.17;81.57;96521.23;107830;1291;22346;-85
2022/04/05 01:29:57;;;;;;;22.40;20.60;;;;;;;1.15;80.26;96520.98;107850;1291;22965;-83
2022/04/05 01:32:25;;;;;;;27.50;25.40;;;;;;;1.16;80.14;96515.20;107844;1291;22372;-82
2022/04/05 01:34:54;;;;;;;23.80;22.00;;;;;;;1.16;81.78;96515.41;107848;1291;22285;-83
2022/04/05 01:37:22;;;;;;;22.70;20.90;;;;;;;1.14;81.71;96514.14;107840;1290;22276;-82
2022/04/05 01:39:51;;;;;;;24.90;23.00;;;;;;;1.12;82.81;96515.84;107558;1291;22249;-85
2022/04/05 01:42:19;;;;;;;21.40;19.80;;;;;;;1.14;82.86;96513.77;107864;1291;22742;-82
2022/04/05 01:44:47;;;;;;;21.00;19.50;;;;;;;1.16;82.88;96511.01;107868;1291;22764;-83
2022/04/05 01:47:16;;;;;;;23.60;21.80;;;;;;;1.16;83.14;96509.14;107825;1291;22248;-82
2022/04/05 01:49:48;;;;;;;21.20;19.60;;;;;;;1.16;82.70;96506.55;107847;1291;22414;-83
2022/04/05 01:52:18;;;;;;;22.10;20.50;;;;;;;1.15;82.53;96497.00;107835;1291;22162;-82
2022/04/05 01:54:46;;;;;;;20.70;19.00;;;;;;;1.15;82.57;96499.39;107552;1291;22421;-83
2022/04/05 01:57:15;;;;;;;19.60;18.10;;;;;;;1.15;83.41;96498.48;107830;1291;22824;-82
2022/04/05 01:59:44;;;;;;;21.70;20.00;;;;;;;1.15;84.09;96496.30;107803;1290;22366;-83
2022/04/05 02:02:12;;;;;;;23.20;21.50;;;;;;;1.14;83.73;96488.14;107843;1291;22382;-83
2022/04/05 02:04:41;;;;;;;20.60;19.00;;;;;;;1.16;83.32;96486.13;107820;1291;22375;-84
2022/04/05 02:07:14;;;;;;;19.90;18.40;;;;;;;1.17;84.69;96494.86;107847;1290;22453;-83
2022/04/05 02:09:43;;;;;;;20.00;18.60;;;;;;;1.19;83.20;96479.41;107612;1291;23220;-84
2022/04/05 02:12:12;;;;;;;19.80;18.30;;;;;;;1.21;84.57;96481.37;107850;1293;22388;-82
2022/04/05 02:14:56;;;;;;;19.40;18.00;;;;;;;1.22;84.24;96479.30;107979;1291;22494;-81
2022/04/05 02:17:34;;;;;;;18.40;17.00;;;;;;;1.22;84.59;96473.93;107967;1291;22275;-82
2022/04/05 02:20:05;;;;;;;19.30;17.90;;;;;;;1.24;84.68;96484.64;107841;1291;22435;-83
2022/04/05 02:22:34;;;;;;;19.20;17.80;;;;;;;1.26;85.05;96472.99;107659;1291;23088;-84
2022/04/05 02:25:07;;;;;;;22.20;20.30;;;;;;;1.28;84.23;96472.41;107654;1291;22331;-84
2022/04/05 02:27:41;;;;;;;20.30;18.80;;;;;;;1.28;84.68;96466.36;107547;1293;22313;-84
2022/04/05 02:31:11;;;;;;;20.10;18.60;;;;;;;1.27;84.74;96466.58;107755;1291;22341;-83
2022/04/05 02:33:40;;;;;;;19.80;18.20;;;;;;;1.30;84.89;96454.69;107449;1294;22195;-86
2022/04/05 02:36:13;;;;;;;19.90;18.30;;;;;;;1.32;84.89;96466.08;107693;1291;22866;-89
2022/04/05 02:38:43;;;;;;;20.20;18.70;;;;;;;1.31;84.93;96463.11;107427;1294;22377;-86
2022/04/05 02:41:11;;;;;;;19.00;17.50;;;;;;;1.33;84.52;96463.54;107847;1290;23034;-89
2022/04/05 02:43:40;;;;;;;19.80;18.30;;;;;;;1.33;84.04;96454.71;107667;1291;22314;-87
2022/04/05 02:46:11;;;;;;;17.90;16.50;;;;;;;1.36;84.49;96455.40;107541;1291;23303;-88
2022/04/05 02:48:43;;;;;;;21.30;19.80;;;;;;;1.36;85.65;96466.27;107457;1293;22315;-87
2022/04/05 02:51:16;;;;;;;20.50;18.90;;;;;;;1.35;85.11;96452.25;107637;1291;22329;-88
2022/04/05 02:53:44;;;;;;;20.20;18.70;;;;;;;1.36;84.72;96459.68;107830;1291;22276;-86
2022/04/05 02:56:13;;;;;;;18.10;16.80;;;;;;;1.40;84.13;96459.41;107813;1291;22372;-88
2022/04/05 02:58:43;;;;;;;19.70;18.30;;;;;;;1.42;84.33;96462.20;107556;1291;22432;-88
2022/04/05 03:01:11;;;;;;;20.00;18.50;;;;;;;1.43;85.15;96471.05;107667;1293;22351;-90
2022/04/05 03:03:39;;;;;;;20.60;18.90;;;;;;;1.43;85.09;96468.57;107671;1290;23082;-87
2022/04/05 03:06:07;;;;;;;17.50;16.20;;;;;;;1.40;85.71;96460.94;107557;1292;22554;-89
2022/04/05 03:08:37;;;;;;;18.50;17.00;;;;;;;1.44;84.99;96456.88;107450;1291;22428;-88
2022/04/05 03:11:07;;;;;;;20.20;18.60;;;;;;;1.48;84.16;96459.18;107639;1291;22460;-89
2022/04/05 03:13:35;;;;;;;20.50;18.80;;;;;;;1.50;84.59;96464.48;107816;1291;22515;-89
2022/04/05 03:16:03;;;;;;;19.90;18.50;;;;;;;1.50;85.33;96459.82;107464;1293;22980;-89
2022/04/05 03:18:32;;;;;;;20.00;18.50;;;;;;;1.49;85.51;96456.36;107533;1291;22246;-88
2022/04/05 03:21:01;;;;;;;20.80;19.20;;;;;;;1.50;85.48;96458.80;107575;1290;22432;-89
2022/04/05 03:23:29;;;;;;;21.40;19.80;;;;;;;1.52;85.99;96463.55;107563;1291;22473;-88
2022/04/05 03:25:57;;;;;;;23.40;21.70;;;;;;;1.54;85.00;96454.97;107664;1291;23434;-89
2022/04/05 03:28:27;;;;;;;21.10;19.50;;;;;;;1.53;85.10;96467.39;107542;1291;22345;-90
2022/04/05 03:30:55;;;;;;;23.90;22.00;;;;;;;1.53;85.31;96456.55;107598;1291;22473;-89
2022/04/05 03:33:23;;;;;;;21.30;19.70;;;;;;;1.55;84.99;96455.69;107693;1291;22270;-87
2022/04/05 03:35:55;;;;;;;19.70;18.30;;;;;;;1.58;84.50;96453.23;107571;1293;22299;-88
2022/04/05 03:38:24;;;;;;;22.40;20.70;;;;;;;1.57;85.46;96457.38;107596;1291;22300;-87
2022/04/05 03:40:53;;;;;;;21.90;20.10;;;;;;;1.56;84.94;96447.66;107818;1290;22452;-90
2022/04/05 03:43:21;;;;;;;19.60;18.10;;;;;;;1.55;85.59;96448.32;107535;1293;22313;-89
2022/04/05 03:45:53;;;;;;;21.00;19.30;;;;;;;1.56;85.33;96439.02;107685;1290;22445;-89
2022/04/05 03:48:22;;;;;;;20.90;19.30;;;;;;;1.59;85.03;96442.09;107576;1291;22302;-88
2022/04/05 03:50:51;;;;;;;21.80;20.00;;;;;;;1.60;84.83;96437.51;107562;1291;22477;-89
2022/04/05 03:53:19;;;;;;;21.30;19.70;;;;;;;1.59;85.29;96440.27;107698;1291;22284;-89
2022/04/05 03:55:49;;;;;;;20.30;18.70;;;;;;;1.60;85.66;96434.64;107735;1291;22266;-89
2022/04/05 03:58:17;;;;;;;20.60;19.00;;;;;;;1.62;85.94;96434.63;107796;1291;22655;-90
2022/04/05 04:00:45;;;;;;;19.60;18.10;;;;;;;1.63;85.54;96429.15;107562;1291;22304;-87
2022/04/05 04:03:25;;;;;;;20.90;19.30;;;;;;;1.63;85.78;96433.70;107602;1291;22251;-87
2022/04/05 04:05:53;;;;;;;20.50;18.90;;;;;;;1.61;86.68;96428.47;107589;1290;22513;-88
2022/04/05 04:08:22;;;;;;;20.80;19.20;;;;;;;1.60;85.87;96442.17;107537;1291;22262;-81
2022/04/05 04:10:51;;;;;;;20.20;18.60;;;;;;;1.62;85.55;96435.79;107718;1293;22605;-88
2022/04/05 04:13:21;;;;;;;19.40;17.80;;;;;;;1.66;84.77;96438.31;107709;1291;23079;-88
2022/04/05 04:15:51;;;;;;;19.80;18.30;;;;;;;1.68;85.93;96438.95;107626;1291;22385;-88
2022/04/05 04:18:19;;;;;;;24.50;22.60;;;;;;;1.67;86.24;96436.33;107604;1293;22314;-87
2022/04/05 04:20:49;;;;;;;21.60;20.10;;;;;;;1.66;86.07;96436.29;107593;1291;22261;-86
2022/04/05 04:23:18;;;;;;;19.40;17.90;;;;;;;1.68;85.82;96437.08;107473;1294;22294;-88
2022/04/05 04:25:50;;;;;;;19.60;18.20;;;;;;;1.72;84.97;96437.88;107497;1291;22192;-88
2022/04/05 04:28:18;;;;;;;18.90;17.40;;;;;;;1.76;85.53;96440.98;107659;1291;22280;-88
2022/04/05 04:30:46;;;;;;;22.30;20.70;;;;;;;1.77;85.67;96434.45;107770;1291;22398;-89
2022/04/05 04:33:14;;;;;;;19.60;18.10;;;;;;;1.79;85.80;96444.11;107671;1292;22294;-87
2022/04/05 04:35:43;;;;;;;17.40;16.10;;;;;;;1.82;86.10;96448.33;107805;1291;22430;-88
2022/04/05 04:38:12;;;;;;;18.60;17.00;;;;;;;1.87;86.38;96444.63;107783;1291;22363;-87
2022/04/05 04:40:45;;;;;;;20.10;18.50;;;;;;;1.93;85.45;96444.95;107789;1291;22380;-87
2022/04/05 04:43:15;;;;;;;20.70;19.00;;;;;;;1.95;86.41;96445.57;107781;1290;22394;-85
2022/04/05 04:45:44;;;;;;;20.60;18.90;;;;;;;1.97;85.67;96444.65;107548;1291;22428;-87
2022/04/05 04:48:12;;;;;;;19.90;18.30;;;;;;;2.00;85.74;96446.21;107816;1291;22360;-86
2022/04/05 04:50:40;;;;;;;18.90;17.40;;;;;;;2.03;85.90;96443.65;107804;1290;22335;-87
2022/04/05 04:53:08;;;;;;;19.10;17.60;;;;;;;2.05;85.63;96445.59;107811;1290;22288;-88
2022/04/05 04:55:36;;;;;;;22.00;20.10;;;;;;;2.10;85.53;96449.38;107670;1293;22317;-87
2022/04/05 04:58:24;;;;;;;18.90;17.50;;;;;;;2.10;85.62;96451.52;107815;1290;22368;-86
2022/04/05 05:00:52;;;;;;;21.00;19.20;;;;;;;2.09;86.11;96451.66;107571;1290;22269;-85
2022/04/05 05:03:19;;;;;;;20.50;18.90;;;;;;;2.12;85.90;96453.08;107842;1291;22271;-89
2022/04/05 05:05:48;;;;;;;20.00;18.30;;;;;;;2.15;85.89;96459.74;107798;1291;22315;-86
2022/04/05 05:08:16;;;;;;;24.00;22.10;;;;;;;2.14;86.36;96454.86;107808;1291;22286;-87
2022/04/05 05:10:44;;;;;;;20.70;19.00;;;;;;;2.13;86.24;96461.94;107832;1290;22369;-86
2022/04/05 05:13:12;;;;;;;24.10;21.90;;;;;;;2.14;85.68;96459.27;107836;1290;22299;-87
2022/04/05 05:15:40;;;;;;;21.40;19.50;;;;;;;2.16;86.08;96461.70;107834;1291;22454;-89
2022/04/05 05:18:08;;;;;;;24.40;22.10;;;;;;;2.18;86.36;96457.98;107851;1290;22410;-89
2022/04/05 05:20:36;;;;;;;22.30;20.40;;;;;;;2.21;85.71;96460.27;107830;1291;23096;-89
2022/04/05 05:23:07;;;;;;;21.20;19.40;;;;;;;2.23;85.75;96461.27;107723;1290;22329;-90
2022/04/05 05:25:35;;;;;;;23.00;20.90;;;;;;;2.24;86.37;96465.41;107823;1291;22957;-90
2022/04/05 05:28:03;;;;;;;18.80;17.20;;;;;;;2.27;86.52;96466.40;107610;1290;22288;-88
2022/04/05 05:30:32;;;;;;;19.80;18.20;;;;;;;2.30;85.95;96467.58;107857;1291;22399;-90
2022/04/05 05:33:00;;;;;;;18.40;16.80;;;;;;;2.32;86.31;96470.44;107859;1290;22361;-88
2022/04/05 05:35:28;;;;;;;18.80;17.30;;;;;;;2.33;85.68;96470.38;107807;1290;22293;-86
2022/04/05 05:37:58;;;;;;;20.20;18.50;;;;;;;2.34;85.96;96470.05;107860;1291;22451;-90
2022/04/05 05:40:26;;;;;;;20.20;18.50;;;;;;;2.38;86.36;96473.89;107862;1290;22261;-89
2022/04/05 05:42:55;;;;;;;19.90;18.40;;;;;;;2.40;86.16;96472.48;107822;1289;22232;-89
2022/04/05 05:45:24;;;;;;;19.10;17.50;;;;;;;2.41;86.39;96475.70;107848;1289;22343;-89
2022/04/05 05:47:52;;;;;;;18.80;17.30;;;;;;;2.42;86.22;96479.12;107815;1290;22384;-88
2022/04/05 05:50:21;;;;;;;18.20;16.90;;;;;;;2.43;86.27;96476.85;107950;1291;22266;-86
2022/04/05 05:52:50;;;;;;;18.80;17.30;;;;;;;2.43;86.03;96473.14;107808;1292;22249;-89
2022/04/05 05:55:19;;;;;;;19.50;18.00;;;;;;;2.48;86.18;96483.20;107625;1291;22369;-88
2022/04/05 05:57:47;;;;;;;23.00;21.20;;;;;;;2.48;86.49;96474.74;107846;1290;22273;-88
2022/04/05 06:00:20;;;;;;;20.50;18.90;;;;;;;2.49;86.14;96485.59;107818;1290;22250;-87
2022/04/05 06:02:56;;;;;;;17.40;16.00;;;;;;;2.50;86.31;96493.23;107824;1291;22340;-89
2022/04/05 06:05:25;;;;;;;20.60;19.00;;;;;;;2.52;86.12;96485.78;107810;1290;22383;-87
2022/04/05 06:07:54;;;;;;;23.70;21.80;;;;;;;2.53;86.55;96489.80;107830;1290;22300;-88
2022/04/05 06:10:22;;;;;;;19.70;18.00;;;;;;;2.53;86.31;96493.20;107645;1293;22314;-89
2022/04/05 06:12:51;;;;;;;18.30;16.90;;;;;;;2.54;86.24;96491.29;107550;1293;22342;-88
2022/04/05 06:15:19;;;;;;;18.10;16.60;;;;;;;2.55;86.39;96490.89;107678;1292;22540;-87
2022/04/05 06:17:48;;;;;;;17.90;16.50;;;;;;;2.56;86.39;96487.85;107620;1292;22278;-88
2022/04/05 06:20:19;;;;;;;20.40;18.70;;;;;;;2.56;86.17;96493.02;107650;1292;22444;-88
2022/04/05 06:22:49;;;;;;;20.10;18.40;;;;;;;2.54;86.27;96491.49;107645;1292;22274;-88
2022/04/05 06:25:20;;;;;;;17.70;16.20;;;;;;;2.50;86.53;96491.33;107698;1292;22357;-89
2022/04/05 06:27:48;;;;;;;18.20;16.70;;;;;;;2.54;86.30;96495.95;107629;1292;22333;-88
2022/04/05 06:30:16;;;;;;;19.70;18.10;;;;;;;2.56;86.05;96495.09;107670;1292;22257;-88
2022/04/05 06:32:46;;;;;;;19.90;18.40;;;;;;;2.56;86.19;96504.71;107651;1293;22230;-87
2022/04/05 06:35:15;;;;;;;19.00;17.50;;;;;;;2.54;86.69;96498.67;107666;1292;22416;-87
2022/04/05 06:37:44;;;;;;;18.70;16.90;;;;;;;2.53;86.47;96499.06;107616;1292;22314;-89
2022/04/05 06:40:15;;;;;;;17.30;15.90;;;;;;;2.53;86.36;96497.56;107653;1293;22401;-85
2022/04/05 06:42:43;;;;;;;17.30;15.90;;;;;;;2.49;86.85;96505.42;107657;1293;22298;-88
2022/04/05 06:45:17;;;;;;;16.10;14.70;;;;;;;2.47;87.27;96518.09;107689;1293;22355;-88
2022/04/05 06:47:47;;;;;;;15.70;14.30;;;;;;;2.45;86.88;96515.17;107687;1293;22579;-89
2022/04/05 06:50:17;;;;;;;17.00;15.60;;;;;;;2.44;86.81;96515.77;107688;1293;22358;-87
2022/04/05 06:52:45;;;;;;;15.80;14.60;;;;;;;2.44;86.58;96506.36;107551;1292;22283;-89
2022/04/05 06:55:12;;;;;;;17.60;16.10;;;;;;;2.44;87.27;96519.30;107666;1292;22407;-89
2022/04/05 06:57:40;;;;;;;19.70;18.10;;;;;;;2.42;87.15;96514.20;107672;1293;22382;-90
2022/04/05 07:00:11;;;;;;;17.90;16.30;;;;;;;2.38;87.31;96518.92;107669;1292;23094;-88
2022/04/05 07:02:40;;;;;;;21.00;19.20;;;;;;;2.37;87.33;96516.69;107457;1293;22284;-88
2022/04/05 07:05:09;;;;;;;15.40;14.20;;;;;;;2.39;87.10;96517.80;107652;1293;23150;-89
2022/04/05 07:07:39;;;;;;;17.60;16.10;;;;;;;2.38;87.36;96520.46;107655;1293;23111;-90
2022/04/05 07:10:09;;;;;;;22.80;20.90;;;;;;;2.35;87.28;96524.31;107582;1290;22560;-89
2022/04/05 07:12:38;;;;;;;23.30;21.10;;;;;;;2.31;87.42;96523.98;107829;1290;22421;-88
2022/04/05 07:15:07;;;;;;;18.00;16.60;;;;;;;2.30;87.72;96525.27;107840;1289;22352;-88
2022/04/05 07:17:36;;;;;;;18.50;16.90;;;;;;;2.29;87.36;96519.10;107820;1290;22721;-89
2022/04/05 07:20:23;;;;;;;20.90;19.10;;;;;;;2.31;87.48;96521.15;107849;1290;22244;-86
2022/04/05 07:22:51;;;;;;;26.50;24.40;;;;;;;2.31;87.41;96526.01;107862;1291;22271;-89
2022/04/05 07:25:20;;;;;;;20.70;18.70;;;;;;;2.30;87.37;96519.69;107856;1290;22342;-87
2022/04/05 07:27:49;;;;;;;18.50;17.00;;;;;;;2.28;87.87;96534.10;107675;1293;22350;-88
2022/04/05 07:30:18;;;;;;;15.10;13.70;;;;;;;2.27;87.70;96525.56;108124;1291;22995;-88
2022/04/05 07:32:47;;;;;;;18.80;17.30;;;;;;;2.30;87.54;96525.64;108020;1290;23020;-89
2022/04/05 07:35:16;;;;;;;15.20;13.90;;;;;;;2.34;87.29;96527.89;107875;1291;22235;-89
2022/04/05 07:37:43;;;;;;;18.30;16.80;;;;;;;2.38;87.59;96527.21;107859;1291;22871;-88
2022/04/05 07:40:12;;;;;;;15.60;14.10;;;;;;;2.40;88.26;96530.34;107861;1290;23191;-89
2022/04/05 07:42:41;;;;;;;15.70;14.40;;;;;;;2.38;88.09;96535.02;107584;1291;22354;-89
2022/04/05 07:45:11;;;;;;;17.60;16.20;;;;;;;2.38;88.27;96532.90;107592;1291;23086;-86
2022/04/05 07:47:40;;;;;;;14.30;12.90;;;;;;;2.40;88.03;96533.89;107831;1290;22407;-88
2022/04/05 07:50:09;;;;;;;14.70;13.40;;;;;;;2.45;87.48;96532.10;107854;1290;22358;-88
2022/04/05 07:52:37;;;;;;;16.20;14.80;;;;;;;2.49;87.69;96532.70;107812;1289;22421;-88
2022/04/05 07:55:06;;;;;;;15.20;13.90;;;;;;;2.51;87.85;96536.88;107840;1291;22390;-88
2022/04/05 07:57:36;;;;;;;12.40;11.30;;;;;;;2.51;88.36;96542.63;107830;1290;22250;-86
2022/04/05 08:00:05;;;;;;;12.10;11.10;;;;;;;2.52;88.37;96549.27;107596;1291;22399;-88
2022/04/05 08:02:39;;;;;;;11.30;10.30;;;;;;;2.53;87.81;96541.02;107850;1291;22865;-87
2022/04/05 08:05:15;;;;;;;13.80;12.70;;;;;;;2.57;87.89;96541.02;107678;1290;22284;-87
2022/04/05 08:07:44;;;;;;;13.10;12.00;;;;;;;2.59;88.27;96545.32;107580;1291;22444;-87
2022/04/05 08:10:13;;;;;;;11.80;10.70;;;;;;;2.59;88.40;96551.86;107853;1290;22293;-89
2022/04/05 08:12:43;;;;;;;12.30;11.10;;;;;;;2.58;88.46;96556.70;107590;1291;22372;-88
2022/04/05 08:15:14;;;;;;;9.90;8.90;;;;;;;2.61;88.10;96553.96;107913;1291;22415;-88
2022/04/05 08:17:43;;;;;;;11.80;10.70;;;;;;;2.63;88.79;96563.58;107936;1290;22442;-88
2022/04/05 08:20:11;;;;;;;10.60;9.70;;;;;;;2.63;88.81;96552.77;108028;1291;22080;-86
2022/04/05 08:22:40;;;;;;;13.00;11.90;;;;;;;2.64;88.41;96557.08;107966;1291;22435;-83
2022/04/05 08:25:09;;;;;;;13.30;12.10;;;;;;;2.64;88.37;96555.64;107968;1291;22210;-82
2022/04/05 08:27:37;;;;;;;10.80;9.90;;;;;;;2.68;88.03;96560.77;108051;1291;22298;-82
2022/04/05 08:30:08;;;;;;;10.30;9.40;;;;;;;2.71;88.63;96561.02;108265;1290;22258;-84
2022/04/05 08:32:42;;;;;;;12.60;11.50;;;;;;;2.73;88.43;96560.17;108340;1290;22357;-88
2022/04/05 08:35:12;;;;;;;10.90;10.00;;;;;;;2.74;88.60;96569.11;107993;1293;22375;-86
2022/04/05 08:37:41;;;;;;;11.10;10.00;;;;;;;2.73;88.52;96573.48;108313;1290;22445;-85
2022/04/05 08:40:15;;;;;;;11.40;10.40;;;;;;;2.73;88.56;96572.41;108138;1290;22355;-85
2022/04/05 08:42:51;;;;;;;11.40;10.20;;;;;;;2.78;88.60;96574.23;107880;1291;22326;-87
2022/04/05 08:45:21;;;;;;;12.00;10.90;;;;;;;2.80;88.32;96570.98;107857;1290;22390;-86
2022/04/05 08:47:54;;;;;;;14.20;13.00;;;;;;;2.86;88.32;96579.16;107542;1291;23117;-86
2022/04/05 08:50:25;;;;;;;15.90;14.50;;;;;;;2.91;88.42;96570.75;107830;1290;22288;-83
2022/04/05 08:52:55;;;;;;;13.20;11.90;;;;;;;2.92;88.56;96579.20;107580;1291;22382;-89
2022/04/05 08:55:23;;;;;;;13.90;12.60;;;;;;;2.94;88.37;96581.48;107861;1290;22965;-84
2022/04/05 08:57:51;;;;;;;10.00;9.10;;;;;;;2.98;88.61;96580.81;107809;1289;22551;-85
2022/04/05 09:00:19;;;;;;;11.90;10.90;;;;;;;2.98;88.53;96583.52;107515;1291;22416;-85
2022/04/05 09:02:54;;;;;;;10.70;9.60;;;;;;;2.99;88.28;96589.80;107822;1290;22455;-85
2022/04/05 09:05:36;;;;;;;12.60;11.60;;;;;;;2.96;88.57;96579.01;107813;1291;22311;-84
2022/04/05 09:08:10;;;;;;;15.60;14.30;;;;;;;3.04;88.41;96583.98;107792;1290;22452;-84
2022/04/05 09:10:38;;;;;;;12.70;11.50;;;;;;;3.08;88.68;96585.81;107818;1290;22192;-87
2022/04/05 09:13:09;;;;;;;13.50;12.20;;;;;;;3.12;88.27;96595.35;107931;1291;22731;-86
2022/04/05 09:15:39;;;;;;;12.40;11.30;;;;;;;3.13;88.57;96596.71;107892;1290;22880;-86
2022/04/05 09:18:07;;;;;;;25.10;22.90;;;;;;;3.14;88.52;96585.69;107588;1290;22456;-83
2022/04/05 09:20:48;;;;;;;19.70;18.00;;;;;;;3.16;88.42;96589.61;107584;1290;22276;-85
2022/04/05 09:23:27;;;;;;;11.20;10.10;;;;;;;3.19;88.40;96590.73;107934;1290;22261;-85
2022/04/05 09:26:01;;;;;;;13.80;12.50;;;;;;;3.21;88.09;96580.60;107939;1290;22476;-84
2022/04/05 09:28:41;;;;;;;12.70;11.50;;;;;;;3.25;88.44;96583.08;107926;1290;22529;-85
2022/04/05 09:31:12;;;;;;;17.30;15.70;;;;;;;3.27;88.20;96586.03;107992;1289;22168;-84
2022/04/05 09:34:01;;;;;;;15.90;14.50;;;;;;;3.32;88.03;96594.59;107936;1290;22252;-85
2022/04/05 09:36:38;;;;;;;15.40;14.10;;;;;;;3.34;87.92;96598.35;107912;1290;23429;-84
2022/04/05 09:39:14;;;;;;;18.00;16.40;;;;;;;3.37;87.86;96599.23;107561;1293;22694;-83
2022/04/05 09:42:03;;;;;;;14.60;13.10;;;;;;;3.36;87.76;96603.13;107912;1290;22400;-85
2022/04/05 09:44:42;;;;;;;13.60;12.00;;;;;;;3.37;87.67;96604.34;107918;1290;22436;-85
2022/04/05 09:47:18;;;;;;;11.40;10.20;;;;;;;3.38;87.61;96598.30;107959;1290;22376;-86
2022/04/05 09:49:48;;;;;;;14.00;12.70;;;;;;;3.41;87.78;96598.85;107962;1290;22398;-85
2022/04/05 09:52:29;;;;;;;11.40;10.30;;;;;;;3.44;87.68;96604.52;107967;1290;22281;-86
2022/04/05 09:55:11;;;;;;;11.20;10.10;;;;;;;3.50;87.61;96600.79;107648;1290;23014;-85
2022/04/05 09:57:39;;;;;;;12.20;11.10;;;;;;;3.56;87.45;96609.28;107881;1290;23015;-83
2022/04/05 10:00:14;;;;;;;12.10;11.00;;;;;;;3.65;87.56;96608.31;107923;1290;22531;-86
2022/04/05 10:03:01;;;;;;;12.10;11.00;;;;;;;3.72;87.46;96608.77;107708;1291;23259;-85
2022/04/05 10:05:31;;;;;;;11.50;10.40;;;;;;;3.75;87.05;96609.90;107852;1290;23030;-86
2022/04/05 10:07:59;;;;;;;11.30;10.30;;;;;;;3.79;86.93;96612.66;107865;1290;22999;-84
2022/04/05 10:10:27;;;;;;;11.20;10.20;;;;;;;3.89;86.96;96605.41;107875;1289;22358;-86
2022/04/05 10:12:55;;;;;;;10.10;9.20;;;;;;;3.97;86.70;96622.52;107873;1291;23135;-86
2022/04/05 10:15:25;;;;;;;10.70;9.80;;;;;;;4.03;86.46;96615.23;107638;1291;23082;-88
2022/04/05 10:17:53;;;;;;;11.00;10.00;;;;;;;4.12;86.23;96614.36;107867;1290;22360;-87
2022/04/05 10:20:23;;;;;;;11.50;10.40;;;;;;;4.24;85.83;96612.71;107888;1291;22432;-88
2022/04/05 10:22:54;;;;;;;10.40;9.40;;;;;;;4.32;85.42;96616.90;107936;1290;22369;-87
2022/04/05 10:25:22;;;;;;;11.60;10.60;;;;;;;4.36;85.15;96611.02;107989;1290;23067;-87
2022/04/05 10:27:50;;;;;;;10.90;9.80;;;;;;;4.41;85.41;96610.04;107974;1290;22420;-86
2022/04/05 10:30:40;;;;;;;11.20;10.20;;;;;;;4.47;85.01;96609.91;107660;1290;22631;-87
2022/04/05 10:33:12;;;;;;;13.10;12.10;;;;;;;4.53;84.78;96613.05;107971;1290;22263;-88
2022/04/05 10:35:53;;;;;;;15.00;13.70;;;;;;;4.60;84.81;96615.73;107986;1290;23140;-87
2022/04/05 10:38:21;;;;;;;11.60;10.50;;;;;;;4.65;84.34;96619.98;107617;1290;23372;-88
2022/04/05 10:41:20;;;;;;;11.10;10.00;;;;;;;4.70;83.93;96617.06;107959;1290;23067;-86
2022/04/05 10:44:18;;;;;;;13.60;11.60;;;;;;;4.76;83.79;96615.52;107974;1290;22734;-86
2022/04/05 10:46:58;;;;;;;13.30;12.10;;;;;;;4.84;83.49;96613.21;107949;1290;23000;-87
2022/04/05 10:49:49;;;;;;;10.50;9.50;;;;;;;4.93;83.59;96617.42;107985;1290;22448;-86
2022/04/05 10:52:20;;;;;;;10.50;9.60;;;;;;;4.99;83.11;96625.17;107988;1290;22415;-87
2022/04/05 10:54:51;;;;;;;12.70;11.70;;;;;;;5.05;83.04;96628.60;107751;1290;22401;-88
2022/04/05 10:57:30;;;;;;;12.30;11.20;;;;;;;5.09;82.95;96627.25;107638;1290;23172;-90
2022/04/05 10:59:58;;;;;;;12.70;11.40;;;;;;;5.15;83.46;96617.15;107656;1290;22479;-88
2022/04/05 11:02:43;;;;;;;13.90;12.70;;;;;;;5.23;82.62;96626.72;107945;1290;23051;-89
2022/04/05 11:05:14;;;;;;;12.80;11.60;;;;;;;5.28;82.52;96628.52;107995;1290;22379;-89
2022/04/05 11:07:51;;;;;;;13.10;12.00;;;;;;;5.28;81.77;96631.88;108006;1290;22335;-90
2022/04/05 11:10:21;;;;;;;17.40;15.80;;;;;;;5.26;81.89;96629.55;107903;1291;23113;-87
2022/04/05 11:12:49;;;;;;;11.60;10.60;;;;;;;5.30;82.12;96632.52;107579;1291;22364;-89
2022/04/05 11:15:18;;;;;;;20.40;17.40;;;;;;;5.36;82.53;96633.86;107912;1289;22327;-88
2022/04/05 11:17:48;;;;;;;17.10;15.50;;;;;;;5.37;81.41;96634.27;107611;1291;22498;-88
2022/04/05 11:20:15;;;;;;;17.10;15.30;;;;;;;5.39;82.40;96634.91;107479;1291;22237;-89
2022/04/05 11:22:43;;;;;;;14.90;13.40;;;;;;;5.43;81.51;96639.77;107877;1291;22327;-87
2022/04/05 11:25:25;;;;;;;13.00;11.70;;;;;;;5.43;80.66;96643.18;107889;1290;22270;-90
2022/04/05 11:27:53;;;;;;;13.40;12.10;;;;;;;5.45;81.02;96641.55;107606;1291;23016;-87
2022/04/05 11:30:52;;;;;;;11.20;9.90;;;;;;;5.47;80.24;96643.81;107886;1290;22443;-90
2022/04/05 11:33:30;;;;;;;11.90;10.60;;;;;;;5.49;80.39;96634.68;107679;1291;23228;-88